Time;durP1;ratioP1;P1;durP2;ratioP2;P2;SDS_P1;SDS_P2;PMS_P1;PMS_P2;Temp;Humidity;BMP_temperature;BMP_pressure;BME280_temperature;BME280_humidity;BME280_pressure;Samples;Min_cycle;Max_cycle;Signal;HPM_P1;HPM_P2
2022/07/21 00:00:39;;;;;;;1.87;0.88;;;;;;;18.23;49.49;100244.10;1770070;81;21102;-61
2022/07/21 00:03:08;;;;;;;1.95;0.82;;;;;;;18.22;49.57;100245.20;1768835;81;21008;-62
2022/07/21 00:05:39;;;;;;;1.42;0.80;;;;;;;18.20;49.59;100237.09;1769866;80;21004;-63
2022/07/21 00:08:09;;;;;;;1.82;0.75;;;;;;;18.20;49.74;100244.58;1745908;81;21044;-62
2022/07/21 00:10:40;;;;;;;3.80;0.88;;;;;;;18.16;49.75;100240.63;1739793;81;21529;-61
2022/07/21 00:13:10;;;;;;;3.95;1.02;;;;;;;18.15;49.93;100233.40;1739299;81;21054;-61
2022/07/21 00:15:41;;;;;;;2.00;1.12;;;;;;;18.12;50.02;100240.28;1741776;81;21055;-64
2022/07/21 00:18:11;;;;;;;4.87;1.42;;;;;;;18.11;50.13;100247.47;1745104;82;21506;-62
2022/07/21 00:20:41;;;;;;;1.98;1.00;;;;;;;18.09;50.22;100246.34;1739240;82;21024;-62
2022/07/21 00:23:11;;;;;;;4.62;0.88;;;;;;;18.06;50.25;100243.52;1739147;82;21003;-62
2022/07/21 00:25:42;;;;;;;6.25;0.90;;;;;;;18.05;50.23;100250.16;1739489;81;21400;-62
2022/07/21 00:28:13;;;;;;;3.27;0.98;;;;;;;18.02;50.36;100247.04;1739421;81;21055;-61
2022/07/21 00:30:43;;;;;;;2.33;1.02;;;;;;;17.98;50.54;100252.80;1739909;81;21007;-61
2022/07/21 00:33:13;;;;;;;3.35;0.93;;;;;;;17.94;50.62;100252.45;1739318;81;21063;-63
2022/07/21 00:35:44;;;;;;;3.12;1.17;;;;;;;17.90;50.77;100248.50;1733166;82;21102;-63
2022/07/21 00:38:15;;;;;;;3.65;0.90;;;;;;;17.88;50.89;100244.30;1733602;82;21028;-62
2022/07/21 00:40:45;;;;;;;2.25;1.12;;;;;;;17.85;51.00;100245.63;1733536;82;21083;-63
2022/07/21 00:43:15;;;;;;;4.28;0.98;;;;;;;17.80;51.17;100251.08;1733470;81;21040;-63
2022/07/21 00:45:45;;;;;;;4.08;1.10;;;;;;;17.78;51.26;100248.27;1700501;84;21030;-62
2022/07/21 00:48:15;;;;;;;2.50;1.12;;;;;;;17.71;51.35;100247.03;1700284;84;21066;-63
2022/07/21 00:50:45;;;;;;;3.25;1.20;;;;;;;17.64;51.52;100254.63;1700422;84;21057;-63
2022/07/21 00:53:15;;;;;;;4.35;1.20;;;;;;;17.55;51.67;100252.77;1760042;81;21004;-63
2022/07/21 00:55:46;;;;;;;1.87;0.90;;;;;;;17.49;51.84;100249.59;1763804;81;21013;-62
2022/07/21 00:58:16;;;;;;;4.47;1.37;;;;;;;17.44;52.01;100250.34;1763847;81;21084;-62
2022/07/21 01:00:46;;;;;;;5.28;1.22;;;;;;;17.41;52.11;100247.22;1742819;81;21024;-63
2022/07/21 01:03:15;;;;;;;1.95;1.20;;;;;;;17.39;52.21;100251.62;1763528;81;21016;-62
2022/07/21 01:05:45;;;;;;;1.95;1.10;;;;;;;17.38;52.31;100253.25;1763804;81;21456;-63
2022/07/21 01:08:15;;;;;;;4.17;1.22;;;;;;;17.36;52.41;100251.27;1749179;80;21020;-64
2022/07/21 01:10:46;;;;;;;4.12;1.10;;;;;;;17.34;52.55;100252.06;1733818;81;21483;-62
2022/07/21 01:13:17;;;;;;;2.33;1.42;;;;;;;17.33;52.59;100253.98;1733373;83;21056;-64
2022/07/21 01:15:47;;;;;;;4.40;1.17;;;;;;;17.33;52.58;100253.14;1735568;81;21059;-62
2022/07/21 01:18:17;;;;;;;2.08;1.07;;;;;;;17.31;52.75;100258.09;1748707;82;20992;-62
2022/07/21 01:20:52;;;;;;;2.75;1.10;;;;;;;17.26;52.74;100250.52;1745154;82;21044;-62
2022/07/21 01:23:22;;;;;;;3.10;1.57;;;;;;;17.25;52.67;100249.38;1745837;82;21007;-61
2022/07/21 01:25:51;;;;;;;4.95;1.30;;;;;;;17.16;52.83;100244.77;1745298;82;21084;-62
2022/07/21 01:28:22;;;;;;;2.72;1.10;;;;;;;17.08;53.02;100245.98;1734032;82;21051;-62
2022/07/21 01:30:52;;;;;;;3.70;1.20;;;;;;;17.06;53.10;100244.55;1733640;83;21067;-63
2022/07/21 01:33:22;;;;;;;4.83;1.32;;;;;;;17.04;53.19;100238.42;1735854;81;21075;-61
2022/07/21 01:35:53;;;;;;;5.47;1.15;;;;;;;17.01;53.33;100241.13;1763744;80;21459;-62
2022/07/21 01:44:06;;;;;;;2.77;1.27;;;;;;;16.90;53.61;100243.89;1763864;81;21498;-64
2022/07/21 01:46:40;;;;;;;4.30;1.10;;;;;;;16.82;53.80;100233.19;1756583;81;21039;-63
2022/07/21 01:49:10;;;;;;;2.92;1.27;;;;;;;16.77;53.97;100230.61;1745741;82;21676;-60
2022/07/21 01:51:40;;;;;;;2.17;1.30;;;;;;;16.75;54.09;100230.02;1746695;82;21496;-63
2022/07/21 01:54:10;;;;;;;3.90;1.35;;;;;;;16.75;54.07;100225.86;1746638;82;21059;-63
2022/07/21 01:56:39;;;;;;;4.30;1.55;;;;;;;16.77;54.08;100230.61;1746609;82;21043;-62
2022/07/21 01:59:09;;;;;;;3.37;1.35;;;;;;;16.79;54.18;100227.60;1733842;82;21084;-61
2022/07/21 02:01:40;;;;;;;6.03;1.50;;;;;;;16.76;54.11;100230.86;1700589;83;21037;-62
2022/07/21 02:04:09;;;;;;;3.37;1.30;;;;;;;16.72;54.21;100224.97;1732758;82;21615;-62
2022/07/21 02:06:40;;;;;;;6.60;1.65;;;;;;;16.72;54.39;100229.66;1740060;81;21067;-63
2022/07/21 02:09:10;;;;;;;2.90;1.37;;;;;;;16.69;54.45;100224.61;1749031;81;21454;-62
2022/07/21 02:11:39;;;;;;;5.67;1.57;;;;;;;16.64;54.57;100225.84;1743754;82;21055;-62
2022/07/21 02:14:09;;;;;;;3.85;1.40;;;;;;;16.58;54.71;100228.19;1755266;81;20984;-63
2022/07/21 02:16:41;;;;;;;2.72;1.60;;;;;;;16.55;54.94;100218.45;1764034;81;21024;-62
2022/07/21 02:19:11;;;;;;;5.55;1.90;;;;;;;16.54;54.90;100226.99;1763940;81;21059;-63
2022/07/21 02:21:42;;;;;;;3.35;1.55;;;;;;;16.53;54.94;100236.38;1756603;81;21470;-61
2022/07/21 02:24:11;;;;;;;5.45;1.50;;;;;;;16.50;55.01;100230.78;1700437;84;21071;-62
2022/07/21 02:26:40;;;;;;;4.37;1.90;;;;;;;16.48;55.11;100231.02;1732718;82;21099;-62
2022/07/21 02:29:11;;;;;;;2.42;1.40;;;;;;;16.47;55.21;100221.58;1712855;83;21068;-63
2022/07/21 02:31:41;;;;;;;4.72;1.87;;;;;;;16.44;55.26;100217.38;1729296;82;21028;-62
2022/07/21 02:34:10;;;;;;;5.92;1.47;;;;;;;16.44;55.34;100220.68;1732252;80;21075;-62
2022/07/21 02:36:42;;;;;;;3.05;1.52;;;;;;;16.42;55.40;100214.01;1731289;82;21063;-63
2022/07/21 02:39:11;;;;;;;3.92;1.40;;;;;;;16.40;55.54;100218.09;1731115;83;21528;-62
2022/07/21 02:41:42;;;;;;;3.15;1.70;;;;;;;16.39;55.66;100215.03;1731479;82;21027;-62
2022/07/21 02:44:12;;;;;;;4.47;1.77;;;;;;;16.38;55.64;100208.66;1731163;82;21477;-62
2022/07/21 02:46:42;;;;;;;3.22;1.60;;;;;;;16.38;55.68;100218.34;1759074;81;21440;-61
2022/07/21 02:49:13;;;;;;;4.40;1.90;;;;;;;16.39;55.65;100213.65;1761232;81;21063;-62
2022/07/21 02:51:43;;;;;;;3.17;1.47;;;;;;;16.35;55.72;100213.83;1761595;81;21016;-63
2022/07/21 02:54:14;;;;;;;5.47;1.52;;;;;;;16.34;55.86;100216.30;1761180;81;21404;-62
2022/07/21 02:56:44;;;;;;;4.60;1.67;;;;;;;16.32;55.95;100210.16;1762107;81;21553;-62
2022/07/21 02:59:14;;;;;;;3.20;1.92;;;;;;;16.28;56.04;100205.65;1761322;81;21027;-63
2022/07/21 03:01:44;;;;;;;3.85;1.40;;;;;;;16.28;56.13;100208.41;1754855;81;21591;-63
2022/07/21 03:04:15;;;;;;;2.83;1.55;;;;;;;16.30;56.17;100202.64;1742655;81;21087;-62
2022/07/21 03:06:46;;;;;;;4.15;1.57;;;;;;;16.29;56.15;100210.64;1729255;82;21446;-61
2022/07/21 03:09:15;;;;;;;3.87;1.67;;;;;;;16.27;56.27;100208.11;1736030;81;21043;-64
2022/07/21 03:11:44;;;;;;;2.90;1.55;;;;;;;16.29;56.19;100210.10;1741896;82;21035;-63
2022/07/21 03:14:14;;;;;;;2.95;1.40;;;;;;;16.29;56.21;100210.10;1743944;82;21448;-62
2022/07/21 03:16:45;;;;;;;3.90;1.70;;;;;;;16.29;56.36;100200.96;1738117;82;21020;-63
2022/07/21 03:19:15;;;;;;;3.95;1.52;;;;;;;16.29;56.41;100198.20;1731433;83;21008;-63
2022/07/21 03:21:44;;;;;;;4.12;1.50;;;;;;;16.32;56.40;100196.33;1682900;84;21479;-63
2022/07/21 03:24:15;;;;;;;4.72;1.67;;;;;;;16.36;56.51;100201.14;1660051;84;21017;-63
2022/07/21 03:26:45;;;;;;;2.72;1.70;;;;;;;16.39;56.55;100201.20;1696692;84;21044;-63
2022/07/21 03:29:17;;;;;;;4.28;1.82;;;;;;;16.42;56.36;100202.10;1731435;83;21080;-63
2022/07/21 03:31:47;;;;;;;5.60;1.90;;;;;;;16.41;56.47;100201.80;1749110;80;20988;-62
2022/07/21 03:34:17;;;;;;;5.92;1.90;;;;;;;16.41;56.57;100199.04;1761780;81;21020;-63
2022/07/21 03:36:47;;;;;;;4.47;1.72;;;;;;;16.45;56.49;100200.23;1761392;81;21016;-63
2022/07/21 03:39:18;;;;;;;4.53;1.72;;;;;;;16.48;56.44;100203.36;1761391;81;21056;-62
2022/07/21 03:41:49;;;;;;;2.85;1.57;;;;;;;16.52;56.50;100208.41;1761661;81;21020;-62
2022/07/21 03:44:18;;;;;;;6.03;1.67;;;;;;;16.52;56.34;100199.58;1742633;81;21064;-62
2022/07/21 03:46:48;;;;;;;4.17;1.55;;;;;;;16.54;56.25;100199.33;1731543;81;21002;-63
2022/07/21 03:49:18;;;;;;;2.95;1.75;;;;;;;16.54;56.26;100197.41;1731212;82;21059;-61
2022/07/21 03:51:48;;;;;;;4.35;1.20;;;;;;;16.56;56.24;100195.24;1752490;81;20984;-63
2022/07/21 03:54:18;;;;;;;4.80;1.25;;;;;;;16.58;56.13;100197.22;1761581;81;21059;-61
2022/07/21 03:56:48;;;;;;;3.33;1.30;;;;;;;16.59;56.12;100197.52;1761321;81;21428;-62
2022/07/21 03:59:17;;;;;;;4.65;1.30;;;;;;;16.59;56.09;100194.76;1761357;81;21028;-64
2022/07/21 04:01:47;;;;;;;6.00;1.80;;;;;;;16.63;56.16;100187.66;1761522;81;21015;-62
2022/07/21 04:04:18;;;;;;;4.15;1.40;;;;;;;16.67;56.24;100181.12;1761489;81;21459;-63
2022/07/21 04:06:49;;;;;;;4.78;1.32;;;;;;;16.71;56.28;100194.23;1750014;81;21020;-63
2022/07/21 04:09:19;;;;;;;4.55;1.67;;;;;;;16.74;56.32;100184.60;1742402;82;21473;-62
2022/07/21 04:11:51;;;;;;;3.27;1.30;;;;;;;16.75;56.21;100189.05;1741701;82;21040;-63
2022/07/21 04:14:21;;;;;;;2.75;1.12;;;;;;;16.77;56.19;100184.95;1749555;81;21024;-63
2022/07/21 04:16:52;;;;;;;3.25;1.30;;;;;;;16.82;56.16;100182.00;1755474;81;21059;-62
2022/07/21 04:19:22;;;;;;;4.33;1.30;;;;;;;16.86;55.97;100185.41;1739807;81;21427;-63
2022/07/21 04:21:52;;;;;;;2.58;1.20;;;;;;;16.91;56.01;100186.94;1749530;81;21467;-62
2022/07/21 04:24:22;;;;;;;4.67;1.10;;;;;;;16.96;56.14;100184.83;1731355;82;21024;-63
2022/07/21 04:26:51;;;;;;;3.95;1.20;;;;;;;17.00;55.88;100183.25;1731921;81;21049;-63
2022/07/21 04:29:21;;;;;;;1.72;1.20;;;;;;;17.03;55.83;100187.75;1731576;82;21112;-63
2022/07/21 04:31:50;;;;;;;3.22;1.40;;;;;;;17.08;55.80;100185.63;1731285;82;21073;-63
2022/07/21 04:34:22;;;;;;;1.87;1.02;;;;;;;17.14;55.72;100188.80;1733791;81;21073;-61
2022/07/21 04:36:52;;;;;;;3.30;1.15;;;;;;;17.19;55.48;100194.44;1745495;81;21056;-63
2022/07/21 04:39:21;;;;;;;3.12;1.10;;;;;;;17.23;55.45;100192.02;1719825;83;21063;-61
2022/07/21 04:41:51;;;;;;;2.17;1.30;;;;;;;17.27;55.26;100191.82;1775944;80;21488;-62
2022/07/21 04:44:22;;;;;;;1.80;1.20;;;;;;;17.32;55.18;100189.99;1775867;81;21139;-62
2022/07/21 04:46:52;;;;;;;3.70;1.20;;;;;;;17.37;55.10;100183.17;1775875;80;21020;-62
2022/07/21 04:49:22;;;;;;;3.08;1.20;;;;;;;17.41;54.88;100179.36;1775683;80;21086;-63
2022/07/21 04:51:53;;;;;;;5.72;1.37;;;;;;;17.47;54.79;100178.91;1775666;80;21447;-63
2022/07/21 04:54:23;;;;;;;6.80;1.87;;;;;;;17.51;54.60;100183.70;1771722;81;21500;-61
2022/07/21 04:56:52;;;;;;;2.40;1.25;;;;;;;17.56;54.62;100186.59;1714435;82;21515;-62
2022/07/21 04:59:23;;;;;;;4.80;2.05;;;;;;;17.60;54.65;100184.17;1718868;83;21037;-62
2022/07/21 05:01:52;;;;;;;2.10;1.30;;;;;;;17.67;54.53;100191.81;1719557;83;21009;-63
2022/07/21 05:04:23;;;;;;;3.58;1.30;;;;;;;17.78;54.23;100183.98;1742391;80;21047;-62
2022/07/21 05:06:53;;;;;;;3.75;1.30;;;;;;;17.90;54.10;100188.06;1779467;80;21011;-63
2022/07/21 05:09:24;;;;;;;4.85;1.60;;;;;;;18.11;53.70;100187.30;1783410;80;21466;-62
2022/07/21 05:11:55;;;;;;;3.77;1.30;;;;;;;18.37;53.65;100186.64;1755234;80;21043;-62
2022/07/21 05:14:25;;;;;;;11.45;1.70;;;;;;;18.75;52.31;100178.61;1749584;80;21102;-61
2022/07/21 05:16:55;;;;;;;2.80;1.20;;;;;;;19.10;51.89;100175.47;1761670;81;21527;-63
2022/07/21 05:19:25;;;;;;;5.62;1.90;;;;;;;19.46;50.83;100177.55;1734742;81;21028;-64
2022/07/21 05:21:56;;;;;;;2.50;1.40;;;;;;;19.80;50.08;100175.45;1761742;81;21012;-63
2022/07/21 05:24:26;;;;;;;7.33;1.77;;;;;;;20.10;49.56;100167.09;1761376;81;21012;-63
2022/07/21 05:26:56;;;;;;;3.90;1.57;;;;;;;20.39;48.59;100166.21;1761715;81;21024;-63
2022/07/21 05:29:26;;;;;;;6.28;1.55;;;;;;;20.62;48.15;100167.78;1765328;80;21039;-64
2022/07/21 05:31:55;;;;;;;4.95;1.40;;;;;;;20.85;47.16;100166.82;1773616;80;21139;-62
2022/07/21 05:34:25;;;;;;;4.05;1.10;;;;;;;21.08;46.62;100173.05;1775927;81;21455;-63
2022/07/21 05:36:55;;;;;;;8.13;2.15;;;;;;;21.36;46.10;100172.61;1777132;79;21055;-64
2022/07/21 05:39:24;;;;;;;2.55;1.00;;;;;;;21.60;45.19;100177.16;1775601;81;21023;-63
2022/07/21 05:41:54;;;;;;;7.03;1.25;;;;;;;21.71;44.90;100169.09;1775683;81;21034;-62
2022/07/21 05:44:24;;;;;;;4.50;1.50;;;;;;;21.92;44.73;100164.92;1775735;81;21035;-62
2022/07/21 05:46:53;;;;;;;2.87;1.27;;;;;;;22.08;44.28;100169.42;1775716;80;21019;-62
2022/07/21 05:49:23;;;;;;;5.70;1.40;;;;;;;22.24;43.87;100162.73;1781277;79;21031;-63
2022/07/21 05:51:52;;;;;;;2.05;1.10;;;;;;;22.35;43.61;100159.37;1813240;79;21011;-64
2022/07/21 05:54:23;;;;;;;4.47;1.20;;;;;;;22.48;43.24;100161.59;1783158;79;21071;-62
2022/07/21 06:00:19;;;;;;;7.65;2.83;;;;;;;22.73;42.72;100156.50;1771631;81;21486;-64
2022/07/21 06:02:50;;;;;;;7.55;1.02;;;;;;;23.07;41.87;100167.33;1778459;81;21066;-63
2022/07/21 06:05:20;;;;;;;6.55;1.15;;;;;;;23.21;41.37;100164.74;1778149;81;21023;-65
2022/07/21 06:07:50;;;;;;;1.95;1.10;;;;;;;23.26;41.16;100161.09;1743262;82;21533;-63
2022/07/21 06:10:20;;;;;;;4.37;1.25;;;;;;;23.38;41.28;100165.21;1728881;81;21119;-63
2022/07/21 06:12:54;;;;;;;2.33;1.07;;;;;;;23.58;41.09;100165.72;1732138;83;21488;-63
2022/07/21 06:15:23;;;;;;;5.75;1.12;;;;;;;23.80;40.57;100163.05;1734879;82;21067;-63
2022/07/21 06:17:55;;;;;;;2.70;1.10;;;;;;;23.82;40.16;100157.43;1718898;83;21046;-63
2022/07/21 06:20:26;;;;;;;6.42;1.10;;;;;;;23.88;40.37;100154.03;1719351;83;21059;-64
2022/07/21 06:22:56;;;;;;;3.70;1.22;;;;;;;24.03;39.97;100158.09;1719419;83;21067;-67
2022/07/21 06:25:29;;;;;;;4.87;1.02;;;;;;;24.11;39.97;100151.06;1719327;83;21066;-62
2022/07/21 06:27:59;;;;;;;3.95;1.10;;;;;;;24.25;39.68;100161.30;1719479;81;21055;-63
2022/07/21 06:30:29;;;;;;;3.90;1.10;;;;;;;24.28;39.36;100151.50;1694737;84;21523;-62
2022/07/21 06:32:59;;;;;;;6.67;1.40;;;;;;;24.25;39.81;100154.30;1698021;82;21048;-63
2022/07/21 06:35:29;;;;;;;7.42;1.32;;;;;;;24.46;39.74;100151.32;1702787;84;21592;-64
2022/07/21 06:37:58;;;;;;;4.53;1.10;;;;;;;24.70;38.61;100154.14;1716592;83;20995;-64
2022/07/21 06:40:28;;;;;;;3.25;0.93;;;;;;;24.68;38.63;100148.84;1733764;82;21067;-63
2022/07/21 06:42:58;;;;;;;4.40;1.10;;;;;;;24.72;38.84;100145.73;1733531;83;21043;-64
2022/07/21 06:45:30;;;;;;;1.98;0.90;;;;;;;24.73;38.23;100138.17;1733038;82;21067;-63
2022/07/21 06:48:03;;;;;;;5.00;0.88;;;;;;;24.82;38.22;100135.81;1739827;82;21020;-64
2022/07/21 06:50:33;;;;;;;1.72;0.90;;;;;;;24.89;37.97;100139.09;1707352;84;21022;-62
2022/07/21 06:53:03;;;;;;;4.45;1.40;;;;;;;25.11;38.22;100141.93;1778468;80;21062;-63
2022/07/21 06:55:33;;;;;;;3.85;0.98;;;;;;;25.31;37.60;100137.44;1804251;79;21035;-63
2022/07/21 06:58:16;;;;;;;2.70;0.95;;;;;;;25.49;37.53;100135.81;1799781;79;21059;-63
2022/07/21 07:00:47;;;;;;;4.12;1.10;;;;;;;25.71;36.71;100129.62;1804207;79;21046;-64
2022/07/21 07:03:18;;;;;;;12.20;1.30;;;;;;;25.76;36.19;100133.75;1809900;79;21020;-63
2022/07/21 07:05:49;;;;;;;3.30;1.50;;;;;;;25.88;35.38;100124.28;1808443;79;21019;-64
2022/07/21 07:08:19;;;;;;;4.78;1.47;;;;;;;25.73;35.89;100121.16;1772774;79;21111;-63
2022/07/21 07:10:49;;;;;;;2.95;0.90;;;;;;;25.63;36.00;100124.66;1747139;82;21536;-63
2022/07/21 07:13:18;;;;;;;1.30;0.80;;;;;;;25.72;35.91;100128.48;1752147;82;21019;-63
2022/07/21 07:15:50;;;;;;;26.70;3.17;;;;;;;25.76;35.95;100121.11;1749811;80;21003;-62
2022/07/21 07:18:22;;;;;;;3.72;1.07;;;;;;;25.89;36.14;100118.93;1752369;82;21098;-62
2022/07/21 07:20:52;;;;;;;3.45;1.00;;;;;;;26.14;35.67;100117.69;1752132;82;21482;-62
2022/07/21 07:23:24;;;;;;;2.92;1.07;;;;;;;26.23;35.43;100113.03;1752355;82;21022;-63
2022/07/21 07:25:53;;;;;;;26.12;2.37;;;;;;;26.30;35.56;100109.81;1752073;81;21027;-63
2022/07/21 07:28:23;;;;;;;7.20;0.82;;;;;;;26.32;34.78;100111.75;1753187;80;21054;-63
2022/07/21 07:30:53;;;;;;;1.75;0.78;;;;;;;26.18;34.94;100110.31;1757063;79;21067;-62
2022/07/21 07:33:24;;;;;;;1.92;0.80;;;;;;;26.28;34.50;100114.34;1730904;83;21092;-63
2022/07/21 07:35:56;;;;;;;2.83;0.78;;;;;;;26.35;34.22;100107.77;1768230;80;21059;-61
2022/07/21 07:38:27;;;;;;;2.60;0.80;;;;;;;26.44;33.51;100103.68;1768160;80;21109;-64
2022/07/21 07:40:57;;;;;;;5.22;0.90;;;;;;;26.44;33.68;100100.87;1768004;81;21100;-63
2022/07/21 07:43:31;;;;;;;2.12;0.98;;;;;;;26.49;33.67;100117.63;1731461;83;21067;-62
2022/07/21 07:46:02;;;;;;;6.45;1.25;;;;;;;26.62;33.35;100109.78;1768919;79;21516;-64
2022/07/21 07:48:36;;;;;;;3.17;1.17;;;;;;;26.78;33.24;100109.77;1779547;80;21896;-64
2022/07/21 07:51:06;;;;;;;3.60;0.98;;;;;;;26.83;33.23;100101.22;1781021;79;21036;-64
2022/07/21 07:53:36;;;;;;;1.87;0.82;;;;;;;26.98;33.03;100106.29;1784655;79;21485;-66
2022/07/21 07:56:07;;;;;;;5.20;1.22;;;;;;;27.09;32.88;100097.89;1757825;80;21070;-65
2022/07/21 07:58:38;;;;;;;3.12;1.15;;;;;;;27.16;32.51;100096.89;1746023;82;21014;-65
2022/07/21 08:01:11;;;;;;;4.50;0.80;;;;;;;27.18;32.37;100091.78;1769322;80;21431;-65
2022/07/21 08:03:50;;;;;;;3.95;0.80;;;;;;;27.14;32.57;100090.75;1776940;81;21013;-63
2022/07/21 08:06:21;;;;;;;7.50;1.37;;;;;;;27.12;32.62;100090.23;1773770;79;21099;-67
2022/07/21 08:08:51;;;;;;;4.10;0.80;;;;;;;27.05;31.51;100075.77;1803595;79;21535;-63
2022/07/21 08:11:22;;;;;;;2.08;0.82;;;;;;;26.91;32.23;100087.58;1819728;79;21011;-63
2022/07/21 08:13:52;;;;;;;5.60;0.90;;;;;;;26.87;32.51;100085.13;1809742;79;21455;-61
2022/07/21 08:16:23;;;;;;;3.85;0.95;;;;;;;26.95;32.06;100070.33;1809966;79;21121;-62
2022/07/21 08:18:57;;;;;;;1.72;0.60;;;;;;;26.97;32.57;100080.69;1809743;79;21082;-61
2022/07/21 08:21:30;;;;;;;4.28;0.75;;;;;;;27.10;32.12;100085.49;1810215;79;21074;-64
2022/07/21 08:24:01;;;;;;;1.77;0.90;;;;;;;27.27;31.69;100075.81;1805854;79;21078;-61
2022/07/21 08:26:34;;;;;;;2.17;0.90;;;;;;;27.55;31.77;100077.16;1751613;79;21516;-63
2022/07/21 08:29:04;;;;;;;2.50;0.50;;;;;;;27.69;31.65;100075.98;1713677;84;21024;-62
2022/07/21 08:31:35;;;;;;;3.30;0.80;;;;;;;27.70;31.58;100072.02;1735003;82;21047;-63
2022/07/21 08:34:06;;;;;;;4.97;0.88;;;;;;;27.74;30.97;100059.54;1736145;82;21067;-62
2022/07/21 08:36:36;;;;;;;4.12;1.22;;;;;;;27.78;31.32;100060.56;1730086;83;21086;-62
2022/07/21 08:39:05;;;;;;;2.90;0.80;;;;;;;27.97;31.56;100063.20;1723399;82;21119;-62
2022/07/21 08:41:37;;;;;;;6.17;1.00;;;;;;;28.17;30.91;100050.55;1637964;87;21071;-63
2022/07/21 08:44:11;;;;;;;2.72;0.90;;;;;;;28.29;30.99;100046.00;1637994;87;21046;-62
2022/07/21 08:46:45;;;;;;;3.45;0.80;;;;;;;28.31;30.03;100050.73;1638007;87;21086;-62
2022/07/21 08:49:17;;;;;;;2.85;0.90;;;;;;;28.05;30.48;100056.78;1616441;87;21046;-62
2022/07/21 08:51:46;;;;;;;2.87;0.90;;;;;;;27.75;30.74;100055.57;1661487;85;21076;-62
2022/07/21 08:54:17;;;;;;;3.45;0.82;;;;;;;27.65;31.06;100048.79;1681310;85;21131;-61
2022/07/21 08:56:51;;;;;;;3.90;1.20;;;;;;;27.53;31.34;100047.09;1662715;85;21490;-64
2022/07/21 08:59:22;;;;;;;2.37;0.72;;;;;;;27.58;31.28;100040.77;1653454;83;22297;-62
2022/07/21 09:01:55;;;;;;;3.58;0.80;;;;;;;27.69;31.25;100049.23;1740247;82;21055;-64
2022/07/21 09:04:34;;;;;;;3.62;0.80;;;;;;;27.89;31.17;100037.19;1734463;82;20992;-63
2022/07/21 09:07:06;;;;;;;6.67;0.90;;;;;;;28.00;31.01;100032.98;1765078;81;21059;-64
2022/07/21 09:09:39;;;;;;;4.53;0.85;;;;;;;28.03;30.88;100026.70;1765280;81;21475;-66
2022/07/21 09:12:10;;;;;;;2.75;0.78;;;;;;;28.12;30.85;100025.34;1762995;81;21019;-65
2022/07/21 09:14:44;;;;;;;6.70;1.47;;;;;;;28.24;30.56;100027.83;1764883;81;21024;-64
2022/07/21 09:17:17;;;;;;;3.52;0.90;;;;;;;28.25;31.16;100021.05;1764958;81;21019;-63
2022/07/21 09:19:51;;;;;;;2.10;1.00;;;;;;;28.27;30.85;100023.53;1785712;79;21027;-65
2022/07/21 09:22:23;;;;;;;5.33;0.90;;;;;;;28.16;31.20;100020.14;1775761;80;21505;-65
2022/07/21 09:24:58;;;;;;;4.10;1.20;;;;;;;27.99;31.14;100012.44;1775471;81;21035;-64
2022/07/21 09:27:30;;;;;;;4.90;0.90;;;;;;;27.76;31.89;100022.04;1775742;81;21525;-65
2022/07/21 09:30:00;;;;;;;2.95;0.90;;;;;;;27.63;31.60;100018.72;1748173;81;21068;-64
2022/07/21 09:32:36;;;;;;;3.70;0.95;;;;;;;27.32;32.34;100018.05;1748719;80;21041;-64
2022/07/21 09:35:16;;;;;;;3.72;0.90;;;;;;;27.03;32.58;100017.02;1781584;80;21451;-65
2022/07/21 09:37:44;;;;;;;6.15;1.10;;;;;;;26.73;33.04;100011.48;1799988;79;21051;-63
2022/07/21 09:40:15;;;;;;;2.10;1.12;;;;;;;26.65;33.43;99998.14;1809801;79;21027;-63
2022/07/21 09:42:50;;;;;;;6.00;1.00;;;;;;;26.76;33.61;99991.75;1810220;79;21391;-64
2022/07/21 09:45:22;;;;;;;2.90;0.85;;;;;;;26.90;33.49;99998.74;1809897;79;21451;-65
2022/07/21 09:47:52;;;;;;;3.15;0.98;;;;;;;26.88;33.37;99995.42;1810014;79;21173;-67
2022/07/21 09:50:23;;;;;;;2.85;1.00;;;;;;;26.85;33.59;99997.71;1809831;79;21003;-64
2022/07/21 09:53:02;;;;;;;10.53;1.60;;;;;;;26.84;33.64;99989.02;1767451;79;21112;-64
2022/07/21 09:55:37;;;;;;;3.25;1.02;;;;;;;26.75;33.62;99988.11;1757172;81;21059;-63
2022/07/21 09:58:09;;;;;;;2.92;1.10;;;;;;;26.60;33.49;99986.17;1738618;82;21523;-62
2022/07/21 10:00:42;;;;;;;4.30;1.30;;;;;;;26.42;33.87;99985.98;1766337;80;21560;-63
2022/07/21 10:03:17;;;;;;;4.37;1.30;;;;;;;26.27;33.87;99985.44;1783277;79;21026;-64
2022/07/21 10:05:49;;;;;;;3.17;0.98;;;;;;;26.16;34.35;99979.20;1812460;79;21067;-65
2022/07/21 10:08:21;;;;;;;2.95;1.17;;;;;;;26.16;34.46;99970.77;1812486;79;21113;-65
2022/07/21 10:10:54;;;;;;;4.83;1.10;;;;;;;26.14;34.38;99973.05;1809515;79;21007;-65
2022/07/21 10:13:30;;;;;;;1.03;0.63;;;;;;;26.16;34.52;99955.33;1777999;79;21518;-63
2022/07/21 10:16:06;;;;;;;6.92;1.50;;;;;;;26.23;34.79;99961.36;1780446;80;21451;-64
2022/07/21 10:19:10;;;;;;;5.28;1.40;;;;;;;26.39;34.98;99970.33;1780370;80;21036;-63
2022/07/21 10:21:53;;;;;;;4.12;1.45;;;;;;;26.55;34.65;99973.06;1780350;79;21055;-68
2022/07/21 10:24:23;;;;;;;6.00;1.30;;;;;;;26.71;34.10;99968.80;1780330;80;21059;-67
2022/07/21 10:27:07;;;;;;;2.70;1.30;;;;;;;26.77;33.81;99961.91;1756227;80;21132;-68
2022/07/21 10:29:55;;;;;;;2.85;1.52;;;;;;;26.84;33.67;99966.53;1778648;80;21087;-68
2022/07/21 10:32:37;;;;;;;1.80;1.30;;;;;;;26.81;33.86;99958.73;1752124;79;21031;-64
2022/07/21 10:35:29;;;;;;;5.35;1.47;;;;;;;26.89;33.80;99972.61;1716146;83;21159;-68
2022/07/21 10:38:01;;;;;;;8.25;1.70;;;;;;;26.90;33.98;99964.43;1737509;80;21041;-66
2022/07/21 10:40:35;;;;;;;4.97;1.30;;;;;;;26.81;34.16;99967.16;1735693;82;21021;-69
2022/07/21 10:43:26;;;;;;;9.55;2.70;;;;;;;26.81;34.10;99965.75;1729767;82;21022;-65
2022/07/21 10:45:59;;;;;;;5.42;2.00;;;;;;;26.67;34.25;99967.77;1736130;82;21088;-65
2022/07/21 10:48:44;;;;;;;4.42;1.20;;;;;;;26.51;34.62;99960.79;1728624;83;21025;-66
2022/07/21 10:51:18;;;;;;;2.47;1.60;;;;;;;26.40;34.85;99955.97;1728806;82;21460;-64
2022/07/21 10:53:52;;;;;;;2.22;1.57;;;;;;;26.39;35.04;99950.09;1710303;82;21035;-65
2022/07/21 10:56:39;;;;;;;4.40;1.40;;;;;;;26.41;35.12;99956.80;1724253;82;21072;-65
2022/07/21 10:59:08;;;;;;;4.10;1.65;;;;;;;26.30;35.42;99953.91;1750961;81;21020;-67
2022/07/21 11:01:39;;;;;;;5.35;1.85;;;;;;;26.19;35.50;99954.70;1767084;81;21112;-66
2022/07/21 11:04:20;;;;;;;3.95;1.50;;;;;;;26.14;35.77;99954.23;1744561;81;21107;-67
2022/07/21 11:06:49;;;;;;;4.90;1.82;;;;;;;26.07;35.79;99952.41;1728433;83;21031;-66
2022/07/21 11:09:20;;;;;;;3.15;1.40;;;;;;;25.95;36.04;99945.61;1710956;81;21255;-64
2022/07/21 11:12:03;;;;;;;2.02;1.30;;;;;;;25.90;36.36;99957.78;1758840;81;21059;-66
2022/07/21 11:14:44;;;;;;;3.45;1.42;;;;;;;25.97;36.26;99954.56;1756797;81;21040;-65
2022/07/21 11:17:27;;;;;;;4.83;1.98;;;;;;;26.01;36.38;99934.00;1758447;81;21032;-65
2022/07/21 11:19:59;;;;;;;4.83;1.92;;;;;;;25.99;36.46;99940.47;1758916;81;21069;-64
2022/07/21 11:22:30;;;;;;;3.55;2.10;;;;;;;26.07;36.73;99936.97;1758834;81;21016;-64
2022/07/21 11:25:06;;;;;;;2.80;1.92;;;;;;;26.17;36.63;99945.75;1758702;81;21051;-63
2022/07/21 11:27:43;;;;;;;2.62;1.98;;;;;;;26.27;36.09;99939.09;1758824;81;21044;-65
2022/07/21 11:30:18;;;;;;;4.75;1.87;;;;;;;26.20;36.20;99950.17;1737933;81;21024;-61
2022/07/21 11:32:48;;;;;;;4.80;1.85;;;;;;;26.12;36.54;99938.27;1732139;83;21043;-65
2022/07/21 11:35:19;;;;;;;3.37;1.72;;;;;;;26.18;36.63;99933.37;1729123;82;21032;-65
2022/07/21 11:37:55;;;;;;;3.40;1.70;;;;;;;26.26;36.56;99939.66;1746135;81;21086;-63
2022/07/21 11:40:29;;;;;;;;;;;;;;;26.37;36.49;99927.09;1750260;82;21110;-63
2022/07/21 11:42:59;;;;;;;3.52;2.00;;;;;;;26.50;36.11;99924.00;1737467;81;20158;-63
2022/07/21 11:45:30;;;;;;;5.55;2.10;;;;;;;26.60;36.42;99933.61;1740610;82;21062;-64
2022/07/21 11:48:00;;;;;;;2.67;2.10;;;;;;;26.60;36.10;99926.58;1751948;82;21066;-62
2022/07/21 11:50:33;;;;;;;3.33;2.17;;;;;;;26.58;36.26;99929.45;1752455;81;21051;-61
2022/07/21 11:53:04;;;;;;;3.50;2.40;;;;;;;26.53;36.62;99926.18;1761449;79;21106;-62
2022/07/21 11:55:39;;;;;;;4.50;2.75;;;;;;;26.60;36.78;99922.37;1687643;84;21051;-62